sensor_id;sensor_type;location;lat;lon;timestamp;P1;durP1;ratioP1;P2;durP2;ratioP2
60014;SDS011;45867;52.480;6.056;2023-02-08T00:02:20;37.88;;;17.67;;
60014;SDS011;45867;52.480;6.056;2023-02-08T00:04:45;39.97;;;18.00;;
60014;SDS011;45867;52.480;6.056;2023-02-08T00:07:11;36.15;;;17.15;;
60014;SDS011;45867;52.480;6.056;2023-02-08T00:09:36;43.25;;;18.73;;
60014;SDS011;45867;52.480;6.056;2023-02-08T00:12:01;34.92;;;17.17;;
60014;SDS011;45867;52.480;6.056;2023-02-08T00:14:27;35.60;;;17.63;;
60014;SDS011;45867;52.480;6.056;2023-02-08T00:16:52;32.88;;;17.08;;
60014;SDS011;45867;52.480;6.056;2023-02-08T00:19:18;37.53;;;17.42;;
60014;SDS011;45867;52.480;6.056;2023-02-08T00:21:43;34.60;;;18.02;;
60014;SDS011;45867;52.480;6.056;2023-02-08T00:24:09;36.95;;;17.75;;
60014;SDS011;45867;52.480;6.056;2023-02-08T00:26:35;37.67;;;17.25;;
60014;SDS011;45867;52.480;6.056;2023-02-08T00:29:00;38.28;;;18.80;;
60014;SDS011;45867;52.480;6.056;2023-02-08T00:31:26;38.47;;;17.80;;
60014;SDS011;45867;52.480;6.056;2023-02-08T00:33:51;35.05;;;17.38;;
60014;SDS011;45867;52.480;6.056;2023-02-08T00:36:16;37.83;;;16.60;;
60014;SDS011;45867;52.480;6.056;2023-02-08T00:38:42;41.85;;;18.42;;
60014;SDS011;45867;52.480;6.056;2023-02-08T00:41:07;34.05;;;16.58;;
60014;SDS011;45867;52.480;6.056;2023-02-08T00:43:33;33.10;;;16.95;;
60014;SDS011;45867;52.480;6.056;2023-02-08T00:45:58;33.30;;;16.27;;
60014;SDS011;45867;52.480;6.056;2023-02-08T00:48:24;30.70;;;16.13;;
60014;SDS011;45867;52.480;6.056;2023-02-08T00:50:57;40.55;;;17.27;;
60014;SDS011;45867;52.480;6.056;2023-02-08T00:53:24;40.00;;;18.00;;
60014;SDS011;45867;52.480;6.056;2023-02-08T00:55:50;39.75;;;17.50;;
60014;SDS011;45867;52.480;6.056;2023-02-08T00:58:16;38.22;;;18.58;;
60014;SDS011;45867;52.480;6.056;2023-02-08T01:00:42;35.20;;;17.40;;
60014;SDS011;45867;52.480;6.056;2023-02-08T01:03:08;33.35;;;16.58;;
60014;SDS011;45867;52.480;6.056;2023-02-08T01:05:35;32.33;;;16.90;;
60014;SDS011;45867;52.480;6.056;2023-02-08T01:08:01;35.08;;;17.38;;
60014;SDS011;45867;52.480;6.056;2023-02-08T01:10:27;38.45;;;16.95;;
60014;SDS011;45867;52.480;6.056;2023-02-08T01:12:56;38.47;;;18.15;;
60014;SDS011;45867;52.480;6.056;2023-02-08T01:15:22;35.13;;;17.23;;
60014;SDS011;45867;52.480;6.056;2023-02-08T01:17:52;34.90;;;17.38;;
60014;SDS011;45867;52.480;6.056;2023-02-08T01:20:19;35.28;;;17.63;;
60014;SDS011;45867;52.480;6.056;2023-02-08T01:22:44;43.22;;;17.67;;
60014;SDS011;45867;52.480;6.056;2023-02-08T01:25:10;36.13;;;17.75;;
60014;SDS011;45867;52.480;6.056;2023-02-08T01:27:35;32.63;;;15.82;;
60014;SDS011;45867;52.480;6.056;2023-02-08T01:30:01;34.65;;;17.35;;
60014;SDS011;45867;52.480;6.056;2023-02-08T01:32:27;30.90;;;15.93;;
60014;SDS011;45867;52.480;6.056;2023-02-08T01:34:52;35.08;;;16.95;;
60014;SDS011;45867;52.480;6.056;2023-02-08T01:37:17;33.30;;;16.67;;
60014;SDS011;45867;52.480;6.056;2023-02-08T01:39:43;37.53;;;16.42;;
60014;SDS011;45867;52.480;6.056;2023-02-08T01:42:12;37.03;;;18.02;;
60014;SDS011;45867;52.480;6.056;2023-02-08T01:47:22;37.60;;;17.50;;
60014;SDS011;45867;52.480;6.056;2023-02-08T01:49:48;34.67;;;17.27;;
60014;SDS011;45867;52.480;6.056;2023-02-08T01:52:16;34.35;;;16.75;;
60014;SDS011;45867;52.480;6.056;2023-02-08T01:57:17;36.97;;;17.90;;
60014;SDS011;45867;52.480;6.056;2023-02-08T01:59:56;35.88;;;17.00;;
60014;SDS011;45867;52.480;6.056;2023-02-08T02:02:25;41.35;;;16.98;;
60014;SDS011;45867;52.480;6.056;2023-02-08T02:04:51;32.70;;;17.33;;
60014;SDS011;45867;52.480;6.056;2023-02-08T02:07:17;33.88;;;17.58;;
60014;SDS011;45867;52.480;6.056;2023-02-08T02:12:27;34.20;;;16.35;;
60014;SDS011;45867;52.480;6.056;2023-02-08T02:14:55;35.75;;;16.70;;
60014;SDS011;45867;52.480;6.056;2023-02-08T02:17:21;34.33;;;16.63;;
60014;SDS011;45867;52.480;6.056;2023-02-08T02:20:03;40.20;;;17.48;;
60014;SDS011;45867;52.480;6.056;2023-02-08T02:28:04;35.65;;;16.70;;
60014;SDS011;45867;52.480;6.056;2023-02-08T02:33:07;30.45;;;15.32;;
60014;SDS011;45867;52.480;6.056;2023-02-08T02:35:56;30.17;;;15.32;;
60014;SDS011;45867;52.480;6.056;2023-02-08T02:38:40;30.50;;;15.27;;
60014;SDS011;45867;52.480;6.056;2023-02-08T02:41:37;36.50;;;15.13;;
60014;SDS011;45867;52.480;6.056;2023-02-08T02:44:36;32.72;;;13.88;;
60014;SDS011;45867;52.480;6.056;2023-02-08T02:47:09;31.92;;;15.38;;
60014;SDS011;45867;52.480;6.056;2023-02-08T02:49:47;27.85;;;14.23;;
60014;SDS011;45867;52.480;6.056;2023-02-08T02:52:18;29.08;;;15.63;;
60014;SDS011;45867;52.480;6.056;2023-02-08T02:54:58;27.90;;;15.00;;
60014;SDS011;45867;52.480;6.056;2023-02-08T02:57:30;33.78;;;14.85;;
60014;SDS011;45867;52.480;6.056;2023-02-08T02:59:57;33.42;;;15.98;;
60014;SDS011;45867;52.480;6.056;2023-02-08T03:02:26;30.95;;;15.55;;
60014;SDS011;45867;52.480;6.056;2023-02-08T03:04:56;27.35;;;14.30;;
60014;SDS011;45867;52.480;6.056;2023-02-08T03:12:58;28.33;;;14.00;;
60014;SDS011;45867;52.480;6.056;2023-02-08T03:15:33;27.33;;;14.38;;
60014;SDS011;45867;52.480;6.056;2023-02-08T03:26:34;30.25;;;14.38;;
60014;SDS011;45867;52.480;6.056;2023-02-08T03:29:11;28.92;;;14.45;;
60014;SDS011;45867;52.480;6.056;2023-02-08T03:32:01;30.25;;;14.32;;
60014;SDS011;45867;52.480;6.056;2023-02-08T03:34:35;28.45;;;14.77;;
60014;SDS011;45867;52.480;6.056;2023-02-08T03:37:59;31.50;;;15.32;;
60014;SDS011;45867;52.480;6.056;2023-02-08T03:40:06;40.05;;;16.80;;
60014;SDS011;45867;52.480;6.056;2023-02-08T03:42:56;33.30;;;15.93;;
60014;SDS011;45867;52.480;6.056;2023-02-08T03:45:32;34.72;;;16.42;;
60014;SDS011;45867;52.480;6.056;2023-02-08T03:48:03;30.23;;;14.88;;
60014;SDS011;45867;52.480;6.056;2023-02-08T03:50:34;31.23;;;15.43;;
60014;SDS011;45867;52.480;6.056;2023-02-08T03:53:03;29.17;;;15.00;;
60014;SDS011;45867;52.480;6.056;2023-02-08T03:55:32;36.35;;;17.02;;
60014;SDS011;45867;52.480;6.056;2023-02-08T03:58:43;32.55;;;15.25;;
60014;SDS011;45867;52.480;6.056;2023-02-08T04:01:29;33.40;;;14.43;;
60014;SDS011;45867;52.480;6.056;2023-02-08T04:04:25;31.85;;;14.48;;
60014;SDS011;45867;52.480;6.056;2023-02-08T04:06:54;34.40;;;15.13;;
60014;SDS011;45867;52.480;6.056;2023-02-08T04:09:19;31.40;;;14.60;;
60014;SDS011;45867;52.480;6.056;2023-02-08T04:11:45;30.30;;;15.18;;
60014;SDS011;45867;52.480;6.056;2023-02-08T04:14:10;34.08;;;15.77;;
60014;SDS011;45867;52.480;6.056;2023-02-08T04:16:36;30.90;;;14.80;;
60014;SDS011;45867;52.480;6.056;2023-02-08T04:19:01;29.42;;;15.15;;
60014;SDS011;45867;52.480;6.056;2023-02-08T04:21:27;32.97;;;15.07;;
60014;SDS011;45867;52.480;6.056;2023-02-08T04:23:52;30.02;;;15.38;;
60014;SDS011;45867;52.480;6.056;2023-02-08T04:26:17;29.65;;;15.75;;
60014;SDS011;45867;52.480;6.056;2023-02-08T04:28:43;31.88;;;16.10;;
60014;SDS011;45867;52.480;6.056;2023-02-08T04:31:09;31.77;;;15.63;;
60014;SDS011;45867;52.480;6.056;2023-02-08T04:33:34;32.92;;;16.25;;
60014;SDS011;45867;52.480;6.056;2023-02-08T04:35:59;31.02;;;15.43;;
60014;SDS011;45867;52.480;6.056;2023-02-08T04:38:25;43.97;;;17.80;;
60014;SDS011;45867;52.480;6.056;2023-02-08T04:40:50;37.03;;;16.92;;
60014;SDS011;45867;52.480;6.056;2023-02-08T04:43:16;35.67;;;15.88;;
60014;SDS011;45867;52.480;6.056;2023-02-08T04:45:41;33.20;;;16.98;;
60014;SDS011;45867;52.480;6.056;2023-02-08T04:48:06;48.22;;;16.92;;
60014;SDS011;45867;52.480;6.056;2023-02-08T04:50:32;36.55;;;17.42;;
60014;SDS011;45867;52.480;6.056;2023-02-08T04:52:58;38.60;;;18.02;;
60014;SDS011;45867;52.480;6.056;2023-02-08T04:55:23;38.38;;;16.95;;
60014;SDS011;45867;52.480;6.056;2023-02-08T04:57:49;37.70;;;17.98;;
60014;SDS011;45867;52.480;6.056;2023-02-08T05:00:14;38.83;;;17.85;;
60014;SDS011;45867;52.480;6.056;2023-02-08T05:02:40;41.35;;;17.30;;
60014;SDS011;45867;52.480;6.056;2023-02-08T05:05:05;38.50;;;19.38;;
60014;SDS011;45867;52.480;6.056;2023-02-08T05:07:30;32.70;;;18.20;;
60014;SDS011;45867;52.480;6.056;2023-02-08T05:09:56;36.03;;;17.75;;
60014;SDS011;45867;52.480;6.056;2023-02-08T05:12:21;38.33;;;16.65;;
60014;SDS011;45867;52.480;6.056;2023-02-08T05:14:47;36.35;;;16.85;;
60014;SDS011;45867;52.480;6.056;2023-02-08T05:17:12;33.88;;;16.08;;
60014;SDS011;45867;52.480;6.056;2023-02-08T05:19:37;37.55;;;17.50;;
60014;SDS011;45867;52.480;6.056;2023-02-08T05:22:03;42.45;;;18.17;;
60014;SDS011;45867;52.480;6.056;2023-02-08T05:24:28;33.50;;;17.42;;
60014;SDS011;45867;52.480;6.056;2023-02-08T05:26:54;38.15;;;17.55;;
60014;SDS011;45867;52.480;6.056;2023-02-08T05:29:19;41.65;;;17.85;;
60014;SDS011;45867;52.480;6.056;2023-02-08T05:31:44;41.25;;;17.90;;
60014;SDS011;45867;52.480;6.056;2023-02-08T05:34:10;37.60;;;18.13;;
60014;SDS011;45867;52.480;6.056;2023-02-08T05:36:36;33.92;;;17.10;;
60014;SDS011;45867;52.480;6.056;2023-02-08T05:39:01;32.38;;;16.40;;
60014;SDS011;45867;52.480;6.056;2023-02-08T05:41:27;34.35;;;17.20;;
60014;SDS011;45867;52.480;6.056;2023-02-08T05:43:52;37.72;;;16.30;;
60014;SDS011;45867;52.480;6.056;2023-02-08T05:46:18;38.80;;;17.15;;
60014;SDS011;45867;52.480;6.056;2023-02-08T05:48:43;37.83;;;16.23;;
60014;SDS011;45867;52.480;6.056;2023-02-08T05:51:08;36.67;;;17.52;;
60014;SDS011;45867;52.480;6.056;2023-02-08T05:53:34;34.38;;;16.45;;
60014;SDS011;45867;52.480;6.056;2023-02-08T05:56:09;38.20;;;17.95;;
60014;SDS011;45867;52.480;6.056;2023-02-08T05:58:34;41.25;;;17.83;;
60014;SDS011;45867;52.480;6.056;2023-02-08T06:01:00;34.60;;;17.15;;
60014;SDS011;45867;52.480;6.056;2023-02-08T06:03:26;36.60;;;17.70;;
60014;SDS011;45867;52.480;6.056;2023-02-08T06:05:51;42.25;;;20.05;;
60014;SDS011;45867;52.480;6.056;2023-02-08T06:08:17;37.58;;;18.70;;
60014;SDS011;45867;52.480;6.056;2023-02-08T06:10:42;36.30;;;17.50;;
60014;SDS011;45867;52.480;6.056;2023-02-08T06:13:09;35.50;;;17.65;;
60014;SDS011;45867;52.480;6.056;2023-02-08T06:15:35;38.95;;;16.90;;
60014;SDS011;45867;52.480;6.056;2023-02-08T06:18:04;30.83;;;15.85;;
60014;SDS011;45867;52.480;6.056;2023-02-08T06:20:29;32.63;;;16.63;;
60014;SDS011;45867;52.480;6.056;2023-02-08T06:22:54;29.75;;;14.70;;
60014;SDS011;45867;52.480;6.056;2023-02-08T06:25:33;32.15;;;15.88;;
60014;SDS011;45867;52.480;6.056;2023-02-08T06:27:58;34.80;;;15.18;;
60014;SDS011;45867;52.480;6.056;2023-02-08T06:30:24;29.90;;;14.70;;
60014;SDS011;45867;52.480;6.056;2023-02-08T06:32:49;38.92;;;17.23;;
60014;SDS011;45867;52.480;6.056;2023-02-08T06:35:15;31.98;;;16.13;;
60014;SDS011;45867;52.480;6.056;2023-02-08T06:37:40;45.05;;;16.92;;
60014;SDS011;45867;52.480;6.056;2023-02-08T06:40:06;31.40;;;15.77;;
60014;SDS011;45867;52.480;6.056;2023-02-08T06:42:33;30.67;;;14.55;;
60014;SDS011;45867;52.480;6.056;2023-02-08T06:44:58;33.95;;;16.85;;
60014;SDS011;45867;52.480;6.056;2023-02-08T06:47:24;37.17;;;16.27;;
60014;SDS011;45867;52.480;6.056;2023-02-08T06:49:53;30.58;;;15.20;;
60014;SDS011;45867;52.480;6.056;2023-02-08T06:52:19;32.80;;;16.17;;
60014;SDS011;45867;52.480;6.056;2023-02-08T06:54:47;33.50;;;15.98;;
60014;SDS011;45867;52.480;6.056;2023-02-08T06:57:12;34.28;;;16.20;;
60014;SDS011;45867;52.480;6.056;2023-02-08T06:59:40;34.47;;;16.45;;
60014;SDS011;45867;52.480;6.056;2023-02-08T07:02:13;29.98;;;15.07;;
60014;SDS011;45867;52.480;6.056;2023-02-08T07:04:43;36.88;;;16.88;;
60014;SDS011;45867;52.480;6.056;2023-02-08T07:07:10;41.05;;;18.73;;
60014;SDS011;45867;52.480;6.056;2023-02-08T07:09:36;35.92;;;16.90;;
60014;SDS011;45867;52.480;6.056;2023-02-08T07:12:02;36.38;;;17.67;;
60014;SDS011;45867;52.480;6.056;2023-02-08T07:14:30;35.17;;;18.23;;
60014;SDS011;45867;52.480;6.056;2023-02-08T07:16:59;40.58;;;18.67;;
60014;SDS011;45867;52.480;6.056;2023-02-08T07:19:25;38.20;;;17.65;;
60014;SDS011;45867;52.480;6.056;2023-02-08T07:21:51;40.00;;;18.00;;
60014;SDS011;45867;52.480;6.056;2023-02-08T07:24:16;46.05;;;18.83;;
60014;SDS011;45867;52.480;6.056;2023-02-08T07:26:41;37.03;;;17.70;;
60014;SDS011;45867;52.480;6.056;2023-02-08T07:29:07;38.13;;;18.50;;
60014;SDS011;45867;52.480;6.056;2023-02-08T07:31:32;42.40;;;19.95;;
60014;SDS011;45867;52.480;6.056;2023-02-08T07:33:58;38.88;;;18.52;;
60014;SDS011;45867;52.480;6.056;2023-02-08T07:36:23;40.70;;;19.17;;
60014;SDS011;45867;52.480;6.056;2023-02-08T07:38:49;39.05;;;19.45;;
60014;SDS011;45867;52.480;6.056;2023-02-08T07:41:14;42.70;;;20.45;;
60014;SDS011;45867;52.480;6.056;2023-02-08T07:43:40;43.40;;;21.13;;
60014;SDS011;45867;52.480;6.056;2023-02-08T07:48:32;40.35;;;20.02;;
60014;SDS011;45867;52.480;6.056;2023-02-08T07:50:58;47.42;;;21.92;;
60014;SDS011;45867;52.480;6.056;2023-02-08T07:53:23;42.38;;;20.33;;
60014;SDS011;45867;52.480;6.056;2023-02-08T07:55:48;45.33;;;20.55;;
60014;SDS011;45867;52.480;6.056;2023-02-08T07:58:14;44.05;;;19.52;;
60014;SDS011;45867;52.480;6.056;2023-02-08T08:00:39;45.65;;;20.35;;
60014;SDS011;45867;52.480;6.056;2023-02-08T08:03:05;40.90;;;20.23;;
60014;SDS011;45867;52.480;6.056;2023-02-08T08:05:30;36.65;;;17.63;;
60014;SDS011;45867;52.480;6.056;2023-02-08T08:07:56;40.00;;;19.02;;
60014;SDS011;45867;52.480;6.056;2023-02-08T08:10:21;41.15;;;19.15;;
60014;SDS011;45867;52.480;6.056;2023-02-08T08:12:46;57.00;;;20.58;;
60014;SDS011;45867;52.480;6.056;2023-02-08T08:15:12;45.05;;;20.92;;
60014;SDS011;45867;52.480;6.056;2023-02-08T08:17:37;41.95;;;20.50;;
60014;SDS011;45867;52.480;6.056;2023-02-08T08:20:06;44.03;;;20.00;;
60014;SDS011;45867;52.480;6.056;2023-02-08T08:22:33;44.28;;;19.85;;
60014;SDS011;45867;52.480;6.056;2023-02-08T08:24:58;38.67;;;19.98;;
60014;SDS011;45867;52.480;6.056;2023-02-08T08:27:24;48.22;;;20.92;;
60014;SDS011;45867;52.480;6.056;2023-02-08T08:29:50;44.47;;;20.13;;
60014;SDS011;45867;52.480;6.056;2023-02-08T08:32:15;45.45;;;20.77;;
60014;SDS011;45867;52.480;6.056;2023-02-08T08:34:40;43.15;;;20.38;;
60014;SDS011;45867;52.480;6.056;2023-02-08T08:37:06;42.42;;;20.73;;
60014;SDS011;45867;52.480;6.056;2023-02-08T08:39:31;44.35;;;21.25;;
60014;SDS011;45867;52.480;6.056;2023-02-08T08:41:58;45.63;;;21.30;;
60014;SDS011;45867;52.480;6.056;2023-02-08T08:44:24;39.40;;;18.42;;
60014;SDS011;45867;52.480;6.056;2023-02-08T08:46:52;47.92;;;19.67;;
60014;SDS011;45867;52.480;6.056;2023-02-08T08:49:20;38.83;;;18.88;;
60014;SDS011;45867;52.480;6.056;2023-02-08T08:51:45;39.67;;;18.65;;
60014;SDS011;45867;52.480;6.056;2023-02-08T08:54:11;35.70;;;18.17;;
60014;SDS011;45867;52.480;6.056;2023-02-08T08:56:36;42.67;;;20.63;;
60014;SDS011;45867;52.480;6.056;2023-02-08T08:59:01;39.70;;;19.05;;
60014;SDS011;45867;52.480;6.056;2023-02-08T09:01:27;36.17;;;17.13;;
60014;SDS011;45867;52.480;6.056;2023-02-08T09:03:52;38.28;;;18.15;;
60014;SDS011;45867;52.480;6.056;2023-02-08T09:06:18;37.63;;;18.63;;
60014;SDS011;45867;52.480;6.056;2023-02-08T09:08:43;33.45;;;16.77;;
60014;SDS011;45867;52.480;6.056;2023-02-08T09:11:10;40.10;;;18.35;;
60014;SDS011;45867;52.480;6.056;2023-02-08T09:13:37;41.95;;;18.23;;
60014;SDS011;45867;52.480;6.056;2023-02-08T09:16:06;37.08;;;18.45;;
60014;SDS011;45867;52.480;6.056;2023-02-08T09:18:34;31.00;;;17.48;;
60014;SDS011;45867;52.480;6.056;2023-02-08T09:21:06;32.88;;;16.30;;
60014;SDS011;45867;52.480;6.056;2023-02-08T09:23:33;32.45;;;16.63;;
60014;SDS011;45867;52.480;6.056;2023-02-08T09:26:18;38.45;;;16.65;;
60014;SDS011;45867;52.480;6.056;2023-02-08T09:28:44;30.73;;;15.65;;
60014;SDS011;45867;52.480;6.056;2023-02-08T09:33:44;29.33;;;14.52;;
60014;SDS011;45867;52.480;6.056;2023-02-08T09:36:09;34.70;;;15.70;;
60014;SDS011;45867;52.480;6.056;2023-02-08T09:38:35;27.77;;;15.10;;
60014;SDS011;45867;52.480;6.056;2023-02-08T09:47:02;30.52;;;15.05;;
60014;SDS011;45867;52.480;6.056;2023-02-08T09:49:35;35.33;;;15.15;;
60014;SDS011;45867;52.480;6.056;2023-02-08T09:52:10;32.47;;;15.75;;
60014;SDS011;45867;52.480;6.056;2023-02-08T09:54:47;29.90;;;14.40;;
60014;SDS011;45867;52.480;6.056;2023-02-08T09:57:19;27.70;;;14.77;;
60014;SDS011;45867;52.480;6.056;2023-02-08T09:59:53;29.15;;;15.20;;
60014;SDS011;45867;52.480;6.056;2023-02-08T10:02:25;22.02;;;9.88;;
60014;SDS011;45867;52.480;6.056;2023-02-08T10:07:25;28.60;;;14.10;;
60014;SDS011;45867;52.480;6.056;2023-02-08T10:09:52;24.45;;;13.05;;
60014;SDS011;45867;52.480;6.056;2023-02-08T10:18:45;29.25;;;11.93;;
60014;SDS011;45867;52.480;6.056;2023-02-08T10:29:50;28.38;;;12.13;;
60014;SDS011;45867;52.480;6.056;2023-02-08T10:32:30;20.17;;;10.75;;
60014;SDS011;45867;52.480;6.056;2023-02-08T10:35:39;26.05;;;12.80;;
60014;SDS011;45867;52.480;6.056;2023-02-08T10:40:44;23.10;;;11.70;;
60014;SDS011;45867;52.480;6.056;2023-02-08T10:43:27;26.67;;;11.60;;
60014;SDS011;45867;52.480;6.056;2023-02-08T10:46:05;23.80;;;11.77;;
60014;SDS011;45867;52.480;6.056;2023-02-08T10:51:02;23.10;;;11.45;;
60014;SDS011;45867;52.480;6.056;2023-02-08T10:53:28;25.15;;;11.43;;
60014;SDS011;45867;52.480;6.056;2023-02-08T10:55:53;20.58;;;11.10;;
60014;SDS011;45867;52.480;6.056;2023-02-08T10:58:19;26.60;;;11.88;;
60014;SDS011;45867;52.480;6.056;2023-02-08T11:00:47;21.15;;;11.27;;
60014;SDS011;45867;52.480;6.056;2023-02-08T11:03:26;23.52;;;11.68;;
60014;SDS011;45867;52.480;6.056;2023-02-08T11:05:53;20.40;;;10.43;;
60014;SDS011;45867;52.480;6.056;2023-02-08T11:08:20;20.58;;;10.90;;
60014;SDS011;45867;52.480;6.056;2023-02-08T11:13:21;16.58;;;10.82;;
60014;SDS011;45867;52.480;6.056;2023-02-08T11:15:51;20.75;;;11.18;;
60014;SDS011;45867;52.480;6.056;2023-02-08T11:18:21;15.65;;;10.48;;
60014;SDS011;45867;52.480;6.056;2023-02-08T11:20:51;16.02;;;10.75;;
60014;SDS011;45867;52.480;6.056;2023-02-08T11:23:30;20.65;;;11.50;;
60014;SDS011;45867;52.480;6.056;2023-02-08T11:29:18;18.05;;;11.00;;
60014;SDS011;45867;52.480;6.056;2023-02-08T11:34:19;16.80;;;11.18;;
60014;SDS011;45867;52.480;6.056;2023-02-08T11:36:49;27.60;;;11.30;;
60014;SDS011;45867;52.480;6.056;2023-02-08T11:42:24;17.75;;;10.38;;
60014;SDS011;45867;52.480;6.056;2023-02-08T11:44:52;14.88;;;9.70;;
60014;SDS011;45867;52.480;6.056;2023-02-08T11:47:26;17.27;;;9.88;;
60014;SDS011;45867;52.480;6.056;2023-02-08T11:49:56;21.23;;;9.70;;
60014;SDS011;45867;52.480;6.056;2023-02-08T11:52:27;19.45;;;11.38;;
60014;SDS011;45867;52.480;6.056;2023-02-08T11:55:10;14.30;;;10.15;;
60014;SDS011;45867;52.480;6.056;2023-02-08T11:57:35;14.82;;;9.32;;
60014;SDS011;45867;52.480;6.056;2023-02-08T12:00:25;15.05;;;9.95;;
60014;SDS011;45867;52.480;6.056;2023-02-08T12:03:00;13.75;;;9.10;;
60014;SDS011;45867;52.480;6.056;2023-02-08T12:11:11;12.98;;;8.27;;
60014;SDS011;45867;52.480;6.056;2023-02-08T12:22:12;12.57;;;7.38;;
60014;SDS011;45867;52.480;6.056;2023-02-08T12:24:46;11.85;;;6.95;;
60014;SDS011;45867;52.480;6.056;2023-02-08T12:38:02;11.57;;;6.70;;
60014;SDS011;45867;52.480;6.056;2023-02-08T12:41:13;9.30;;;6.75;;
60014;SDS011;45867;52.480;6.056;2023-02-08T12:43:52;11.10;;;6.65;;
60014;SDS011;45867;52.480;6.056;2023-02-08T12:49:34;11.60;;;7.07;;
60014;SDS011;45867;52.480;6.056;2023-02-08T12:52:25;12.77;;;7.40;;
60014;SDS011;45867;52.480;6.056;2023-02-08T12:57:55;13.25;;;5.88;;
60014;SDS011;45867;52.480;6.056;2023-02-08T13:00:30;9.55;;;5.47;;
60014;SDS011;45867;52.480;6.056;2023-02-08T13:05:54;12.93;;;5.55;;
60014;SDS011;45867;52.480;6.056;2023-02-08T13:11:03;15.10;;;6.10;;
60014;SDS011;45867;52.480;6.056;2023-02-08T13:13:35;8.13;;;5.00;;
60014;SDS011;45867;52.480;6.056;2023-02-08T13:16:15;10.45;;;6.10;;
60014;SDS011;45867;52.480;6.056;2023-02-08T13:19:06;11.48;;;5.82;;
60014;SDS011;45867;52.480;6.056;2023-02-08T13:21:50;9.95;;;5.43;;
60014;SDS011;45867;52.480;6.056;2023-02-08T13:24:36;11.65;;;6.03;;
60014;SDS011;45867;52.480;6.056;2023-02-08T13:27:04;10.10;;;5.60;;
60014;SDS011;45867;52.480;6.056;2023-02-08T13:29:33;13.43;;;6.28;;
60014;SDS011;45867;52.480;6.056;2023-02-08T13:32:08;8.48;;;5.20;;
60014;SDS011;45867;52.480;6.056;2023-02-08T13:34:44;9.68;;;5.30;;
60014;SDS011;45867;52.480;6.056;2023-02-08T13:37:21;13.07;;;5.00;;
60014;SDS011;45867;52.480;6.056;2023-02-08T13:39:50;7.00;;;4.70;;
60014;SDS011;45867;52.480;6.056;2023-02-08T13:42:28;8.20;;;4.40;;
60014;SDS011;45867;52.480;6.056;2023-02-08T13:44:55;19.52;;;7.00;;
60014;SDS011;45867;52.480;6.056;2023-02-08T13:52:58;15.88;;;7.50;;
60014;SDS011;45867;52.480;6.056;2023-02-08T14:01:00;8.57;;;4.80;;
60014;SDS011;45867;52.480;6.056;2023-02-08T14:03:32;8.70;;;5.15;;
60014;SDS011;45867;52.480;6.056;2023-02-08T14:06:03;8.27;;;5.20;;
60014;SDS011;45867;52.480;6.056;2023-02-08T14:08:40;8.05;;;4.57;;
60014;SDS011;45867;52.480;6.056;2023-02-08T14:11:15;8.25;;;4.38;;
60014;SDS011;45867;52.480;6.056;2023-02-08T14:13:53;9.20;;;4.40;;
60014;SDS011;45867;52.480;6.056;2023-02-08T14:16:28;7.80;;;4.65;;
60014;SDS011;45867;52.480;6.056;2023-02-08T14:19:22;6.10;;;3.95;;
60014;SDS011;45867;52.480;6.056;2023-02-08T14:21:58;9.93;;;4.85;;
60014;SDS011;45867;52.480;6.056;2023-02-08T14:25:00;7.95;;;4.53;;
60014;SDS011;45867;52.480;6.056;2023-02-08T14:27:26;7.43;;;4.68;;
60014;SDS011;45867;52.480;6.056;2023-02-08T14:32:41;7.55;;;4.50;;
60014;SDS011;45867;52.480;6.056;2023-02-08T14:40:47;8.43;;;4.53;;
60014;SDS011;45867;52.480;6.056;2023-02-08T14:49:15;9.35;;;5.03;;
60014;SDS011;45867;52.480;6.056;2023-02-08T14:51:53;10.05;;;4.90;;
60014;SDS011;45867;52.480;6.056;2023-02-08T14:54:24;9.18;;;5.45;;
60014;SDS011;45867;52.480;6.056;2023-02-08T14:56:57;9.77;;;4.85;;
60014;SDS011;45867;52.480;6.056;2023-02-08T14:59:27;10.50;;;4.15;;
60014;SDS011;45867;52.480;6.056;2023-02-08T15:02:02;10.23;;;5.40;;
60014;SDS011;45867;52.480;6.056;2023-02-08T15:04:40;8.77;;;4.40;;
60014;SDS011;45867;52.480;6.056;2023-02-08T15:10:01;6.90;;;4.10;;
60014;SDS011;45867;52.480;6.056;2023-02-08T15:12:29;6.57;;;3.83;;
60014;SDS011;45867;52.480;6.056;2023-02-08T15:15:01;10.45;;;4.95;;
60014;SDS011;45867;52.480;6.056;2023-02-08T15:17:32;7.80;;;4.25;;
60014;SDS011;45867;52.480;6.056;2023-02-08T15:20:05;9.43;;;5.00;;
60014;SDS011;45867;52.480;6.056;2023-02-08T15:22:34;9.80;;;4.68;;
60014;SDS011;45867;52.480;6.056;2023-02-08T15:27:52;8.13;;;4.70;;
60014;SDS011;45867;52.480;6.056;2023-02-08T15:30:24;10.98;;;4.75;;
60014;SDS011;45867;52.480;6.056;2023-02-08T15:33:00;9.73;;;4.32;;
60014;SDS011;45867;52.480;6.056;2023-02-08T15:35:27;10.93;;;4.53;;
60014;SDS011;45867;52.480;6.056;2023-02-08T15:37:55;12.63;;;5.28;;
60014;SDS011;45867;52.480;6.056;2023-02-08T15:42:52;9.00;;;5.10;;
60014;SDS011;45867;52.480;6.056;2023-02-08T15:45:19;11.38;;;5.13;;
60014;SDS011;45867;52.480;6.056;2023-02-08T15:47:46;10.48;;;5.72;;
60014;SDS011;45867;52.480;6.056;2023-02-08T15:50:15;13.20;;;7.43;;
60014;SDS011;45867;52.480;6.056;2023-02-08T15:52:43;10.63;;;6.00;;
60014;SDS011;45867;52.480;6.056;2023-02-08T15:55:11;10.65;;;6.18;;
60014;SDS011;45867;52.480;6.056;2023-02-08T16:00:13;13.38;;;5.75;;
60014;SDS011;45867;52.480;6.056;2023-02-08T16:02:42;10.32;;;5.13;;
60014;SDS011;45867;52.480;6.056;2023-02-08T16:05:17;10.15;;;5.55;;
60014;SDS011;45867;52.480;6.056;2023-02-08T16:07:45;11.82;;;6.03;;
60014;SDS011;45867;52.480;6.056;2023-02-08T16:12:52;12.13;;;5.90;;
60014;SDS011;45867;52.480;6.056;2023-02-08T16:18:29;13.95;;;6.75;;
60014;SDS011;45867;52.480;6.056;2023-02-08T16:20:57;22.95;;;6.55;;
60014;SDS011;45867;52.480;6.056;2023-02-08T16:23:25;14.52;;;6.53;;
60014;SDS011;45867;52.480;6.056;2023-02-08T16:25:51;16.67;;;6.65;;
60014;SDS011;45867;52.480;6.056;2023-02-08T16:30:50;22.73;;;7.97;;
60014;SDS011;45867;52.480;6.056;2023-02-08T16:33:16;16.27;;;7.68;;
60014;SDS011;45867;52.480;6.056;2023-02-08T16:35:43;16.75;;;7.15;;
60014;SDS011;45867;52.480;6.056;2023-02-08T16:38:08;16.23;;;7.28;;
60014;SDS011;45867;52.480;6.056;2023-02-08T16:45:40;16.33;;;6.63;;
60014;SDS011;45867;52.480;6.056;2023-02-08T16:48:25;33.92;;;17.92;;
60014;SDS011;45867;52.480;6.056;2023-02-08T16:50:59;25.65;;;11.98;;
60014;SDS011;45867;52.480;6.056;2023-02-08T16:53:25;19.17;;;10.85;;
60014;SDS011;45867;52.480;6.056;2023-02-08T16:55:53;20.45;;;11.07;;
60014;SDS011;45867;52.480;6.056;2023-02-08T16:58:18;17.83;;;9.48;;
60014;SDS011;45867;52.480;6.056;2023-02-08T17:00:44;17.95;;;10.10;;
60014;SDS011;45867;52.480;6.056;2023-02-08T17:03:10;15.93;;;8.35;;
60014;SDS011;45867;52.480;6.056;2023-02-08T17:05:36;18.20;;;9.38;;
60014;SDS011;45867;52.480;6.056;2023-02-08T17:08:03;17.70;;;8.93;;
60014;SDS011;45867;52.480;6.056;2023-02-08T17:10:34;20.10;;;9.68;;
60014;SDS011;45867;52.480;6.056;2023-02-08T17:13:00;18.15;;;9.70;;
60014;SDS011;45867;52.480;6.056;2023-02-08T17:15:26;20.65;;;10.98;;
60014;SDS011;45867;52.480;6.056;2023-02-08T17:17:52;27.15;;;12.30;;
60014;SDS011;45867;52.480;6.056;2023-02-08T17:22:52;29.15;;;12.43;;
60014;SDS011;45867;52.480;6.056;2023-02-08T17:25:36;26.25;;;12.50;;